Time;durP1;ratioP1;P1;durP2;ratioP2;P2;SDS_P1;SDS_P2;PMS_P1;PMS_P2;Temp;Humidity;BMP_temperature;BMP_pressure;BME280_temperature;BME280_humidity;BME280_pressure;Samples;Min_cycle;Max_cycle;Signal;HPM_P1;HPM_P2
2023/05/31 00:01:45;;;;;;;4.28;2.00;;;12.90;99.90;;;;;;4998602;28;20053;-38
2023/05/31 00:04:10;;;;;;;2.45;1.90;;;12.90;99.90;;;;;;4992493;28;20520;-38
2023/05/31 00:06:36;;;;;;;2.63;1.90;;;13.00;99.90;;;;;;4993880;28;20087;-38
2023/05/31 00:09:02;;;;;;;4.18;2.53;;;12.90;99.90;;;;;;4992151;28;20030;-38
2023/05/31 00:11:28;;;;;;;4.82;2.08;;;12.90;99.90;;;;;;4995000;28;20125;-39
2023/05/31 00:13:54;;;;;;;4.72;2.20;;;12.80;99.90;;;;;;4991929;28;20343;-38
2023/05/31 00:16:19;;;;;;;3.35;2.00;;;12.70;99.90;;;;;;4998797;28;20031;-39
2023/05/31 00:18:46;;;;;;;4.03;2.05;;;12.70;99.90;;;;;;4995326;28;20026;-40
2023/05/31 00:21:11;;;;;;;5.63;2.20;;;12.60;99.90;;;;;;4996230;28;20395;-39
2023/05/31 00:23:37;;;;;;;4.72;2.10;;;12.60;99.90;;;;;;4996644;28;20033;-40
2023/05/31 00:26:03;;;;;;;3.67;2.38;;;12.50;99.90;;;;;;4998936;28;20072;-37
2023/05/31 00:28:28;;;;;;;3.22;1.90;;;12.50;99.90;;;;;;4992510;28;20605;-38
2023/05/31 00:30:54;;;;;;;3.17;1.98;;;12.50;99.90;;;;;;4990014;28;20615;-38
2023/05/31 00:33:19;;;;;;;3.42;1.80;;;12.60;99.90;;;;;;4991130;28;20034;-38
2023/05/31 00:35:45;;;;;;;4.22;1.80;;;12.50;99.90;;;;;;4995802;28;20596;-38
2023/05/31 00:38:11;;;;;;;2.92;1.90;;;12.60;99.90;;;;;;4994026;28;20213;-38
2023/05/31 00:40:36;;;;;;;2.88;2.00;;;12.60;99.90;;;;;;4991702;28;20034;-38
2023/05/31 00:43:02;;;;;;;2.88;2.20;;;12.50;99.90;;;;;;4999184;28;20433;-38
2023/05/31 00:45:28;;;;;;;2.67;1.92;;;12.50;99.90;;;;;;4993437;28;20034;-38
2023/05/31 00:47:55;;;;;;;2.38;2.03;;;12.60;99.90;;;;;;4999412;28;20041;-38
2023/05/31 00:50:21;;;;;;;8.98;2.53;;;12.60;99.90;;;;;;4997903;28;20034;-38
2023/05/31 00:52:49;;;;;;;2.95;1.80;;;12.60;99.90;;;;;;4996225;28;20080;-38
2023/05/31 00:55:15;;;;;;;;;;;12.50;99.90;;;;;;4997553;28;20034;-38
2023/05/31 00:57:41;;;;;;;5.72;1.73;;;12.60;99.90;;;;;;4997649;28;19909;-38
2023/05/31 01:00:10;;;;;;;3.08;1.90;;;12.50;99.90;;;;;;4997603;28;20034;-38
2023/05/31 01:02:37;;;;;;;4.50;1.77;;;12.50;99.90;;;;;;4997171;28;20029;-38
2023/05/31 01:05:05;;;;;;;4.13;2.00;;;12.60;99.90;;;;;;4992612;28;20079;-38
2023/05/31 01:07:31;;;;;;;2.58;1.75;;;12.50;99.90;;;;;;4995066;28;20351;-38
2023/05/31 01:09:57;;;;;;;4.40;1.92;;;12.50;99.90;;;;;;4994271;28;20037;-38
2023/05/31 01:12:52;;;;;;;3.03;1.63;;;12.40;99.90;;;;;;4997401;28;20030;-38
2023/05/31 01:15:22;;;;;;;5.03;2.30;;;12.50;99.90;;;;;;4976062;28;20038;-38
2023/05/31 01:18:09;;;;;;;2.67;1.63;;;12.50;99.90;;;;;;4991135;28;20036;-43
2023/05/31 01:20:37;;;;;;;2.58;1.90;;;12.40;99.90;;;;;;4995247;28;20029;-38
2023/05/31 01:23:51;;;;;;;4.63;2.00;;;12.30;99.90;;;;;;4997906;28;20065;-38
2023/05/31 01:26:28;;;;;;;5.03;1.95;;;12.10;99.90;;;;;;4915135;28;20066;-38
2023/05/31 01:28:59;;;;;;;4.25;2.22;;;12.10;99.90;;;;;;4994992;28;20417;-38
2023/05/31 01:31:26;;;;;;;3.75;1.90;;;12.00;99.90;;;;;;4991418;28;20046;-38
2023/05/31 01:33:53;;;;;;;3.33;1.80;;;12.00;99.90;;;;;;4990486;28;20049;-37
2023/05/31 01:36:19;;;;;;;3.25;1.88;;;12.00;99.90;;;;;;4992437;28;20031;-38
2023/05/31 01:38:45;;;;;;;2.13;1.90;;;12.00;99.90;;;;;;4993491;28;20034;-38
2023/05/31 01:41:12;;;;;;;5.22;2.13;;;12.00;99.90;;;;;;4990252;28;20038;-38
2023/05/31 01:43:41;;;;;;;4.95;1.88;;;11.90;99.90;;;;;;4991852;28;20022;-38
2023/05/31 01:46:09;;;;;;;2.83;1.83;;;11.90;99.90;;;;;;4994589;28;20113;-38
2023/05/31 01:48:35;;;;;;;4.25;1.83;;;11.80;99.90;;;;;;4992993;28;20026;-38
2023/05/31 01:58:13;;;;;;;2.10;1.77;;;11.70;99.90;;;;;;4995837;28;20036;-37
2023/05/31 02:00:41;;;;;;;4.22;1.80;;;11.70;99.90;;;;;;4988841;28;20398;-38
2023/05/31 02:03:07;;;;;;;3.40;1.60;;;11.70;99.90;;;;;;4995035;28;20058;-38
2023/05/31 02:05:32;;;;;;;4.90;2.00;;;11.70;99.90;;;;;;4995319;28;20557;-38
2023/05/31 02:07:58;;;;;;;3.30;2.00;;;11.70;99.90;;;;;;4975463;28;20127;-38
2023/05/31 02:10:24;;;;;;;2.63;1.75;;;11.80;99.90;;;;;;4992823;28;20487;-38
2023/05/31 02:12:54;;;;;;;3.35;1.92;;;11.80;99.90;;;;;;4994907;28;20049;-38
2023/05/31 02:15:20;;;;;;;2.55;1.95;;;11.80;99.90;;;;;;4992307;28;20058;-38
2023/05/31 02:17:50;;;;;;;5.95;2.35;;;11.70;99.90;;;;;;4978435;28;20498;-38
2023/05/31 02:20:17;;;;;;;3.25;2.00;;;11.70;99.90;;;;;;4993002;28;20507;-38
2023/05/31 02:22:44;;;;;;;2.00;1.80;;;11.80;99.90;;;;;;4993126;28;20120;-38
2023/05/31 02:25:11;;;;;;;3.33;2.13;;;11.70;99.90;;;;;;4990867;28;20125;-38
2023/05/31 02:27:38;;;;;;;4.10;2.08;;;11.70;99.90;;;;;;4993876;28;20026;-38
2023/05/31 02:30:06;;;;;;;6.30;2.10;;;11.50;99.90;;;;;;4997625;28;20026;-38
2023/05/31 02:32:35;;;;;;;2.65;1.60;;;11.40;99.90;;;;;;4992005;28;20047;-37
2023/05/31 02:35:03;;;;;;;2.30;1.80;;;11.40;99.90;;;;;;4993282;28;20462;-38
2023/05/31 02:37:29;;;;;;;3.63;1.95;;;11.50;99.90;;;;;;4992136;28;20125;-38
2023/05/31 02:39:55;;;;;;;2.97;1.85;;;11.60;99.90;;;;;;4992990;28;20030;-38
2023/05/31 02:42:21;;;;;;;3.60;1.70;;;11.70;99.90;;;;;;4992066;28;20483;-37
2023/05/31 02:44:47;;;;;;;3.55;2.08;;;11.80;99.90;;;;;;4992957;28;20034;-38
2023/05/31 02:47:12;;;;;;;4.35;1.73;;;11.80;99.90;;;;;;4992921;28;20036;-37
2023/05/31 02:49:38;;;;;;;2.72;2.10;;;11.90;99.90;;;;;;4997318;28;20078;-38
2023/05/31 02:52:04;;;;;;;4.68;1.98;;;11.90;99.90;;;;;;4993770;28;20081;-38
2023/05/31 02:54:29;;;;;;;2.63;1.80;;;11.80;99.90;;;;;;4990914;28;20096;-38
2023/05/31 02:56:55;;;;;;;5.80;1.90;;;11.80;99.90;;;;;;4993629;28;20030;-37
2023/05/31 02:59:21;;;;;;;3.55;2.45;;;11.70;99.90;;;;;;4997367;28;20034;-38
2023/05/31 03:01:49;;;;;;;3.15;1.88;;;11.50;99.90;;;;;;4996228;28;20084;-37
2023/05/31 03:04:14;;;;;;;4.07;2.00;;;11.40;99.90;;;;;;4996540;28;20199;-38
2023/05/31 03:06:42;;;;;;;5.22;2.13;;;11.30;99.90;;;;;;4999086;28;20421;-38
2023/05/31 03:09:08;;;;;;;4.85;2.28;;;11.30;99.90;;;;;;4999532;28;20030;-38
2023/05/31 03:11:34;;;;;;;4.35;2.20;;;11.20;99.90;;;;;;4995465;28;20483;-39
2023/05/31 03:13:59;;;;;;;5.68;2.00;;;11.10;99.90;;;;;;4999463;28;20038;-37
2023/05/31 03:16:25;;;;;;;3.13;2.00;;;11.10;99.90;;;;;;4998673;28;20386;-37
2023/05/31 03:18:51;;;;;;;3.50;2.05;;;11.00;99.90;;;;;;4998885;28;20025;-38
2023/05/31 03:21:17;;;;;;;3.47;1.95;;;11.00;99.90;;;;;;4998835;28;20034;-37
2023/05/31 03:23:42;;;;;;;3.30;1.83;;;10.90;99.90;;;;;;4998355;28;20034;-38
2023/05/31 03:26:08;;;;;;;2.47;1.95;;;10.90;99.90;;;;;;4992493;28;20034;-38
2023/05/31 03:28:33;;;;;;;5.25;1.90;;;10.80;99.90;;;;;;4998117;28;20034;-38
2023/05/31 03:30:59;;;;;;;8.27;2.40;;;10.80;99.90;;;;;;4998315;28;20148;-38
2023/05/31 03:33:25;;;;;;;4.50;2.10;;;10.80;99.90;;;;;;4996079;28;20046;-38
2023/05/31 03:35:50;;;;;;;5.32;1.95;;;10.80;99.90;;;;;;4996195;28;20097;-38
2023/05/31 03:38:16;;;;;;;4.63;1.88;;;10.80;99.90;;;;;;4996599;28;20281;-38
2023/05/31 03:40:41;;;;;;;4.57;1.90;;;10.80;99.90;;;;;;5001375;28;20025;-38
2023/05/31 03:43:07;;;;;;;3.78;2.10;;;10.80;99.90;;;;;;4995851;28;20023;-38
2023/05/31 03:45:33;;;;;;;4.47;2.13;;;10.80;99.90;;;;;;4995923;28;20080;-38
2023/05/31 03:47:59;;;;;;;4.95;2.00;;;10.70;99.90;;;;;;4994902;28;20105;-38
2023/05/31 03:50:24;;;;;;;2.33;1.70;;;10.60;99.90;;;;;;4997334;28;20391;-38
2023/05/31 03:52:50;;;;;;;2.80;2.00;;;10.50;99.90;;;;;;4997826;28;20399;-38
2023/05/31 03:55:16;;;;;;;2.95;2.00;;;10.40;99.90;;;;;;4981213;28;20077;-38
2023/05/31 03:57:41;;;;;;;3.15;1.88;;;10.40;99.90;;;;;;4982397;28;20105;-37
2023/05/31 04:00:10;;;;;;;3.20;1.85;;;10.40;99.90;;;;;;4977876;28;20780;-38
2023/05/31 04:02:37;;;;;;;2.50;2.00;;;10.50;99.90;;;;;;4995066;28;20030;-38
2023/05/31 04:05:04;;;;;;;3.97;2.38;;;10.50;99.90;;;;;;4991975;28;20053;-38
2023/05/31 04:07:29;;;;;;;3.92;2.47;;;10.50;99.90;;;;;;4995526;28;20030;-38
2023/05/31 04:09:55;;;;;;;3.08;2.30;;;10.60;99.90;;;;;;4996509;28;20030;-38
2023/05/31 04:12:20;;;;;;;2.75;2.03;;;10.60;99.90;;;;;;4994418;28;20034;-38
2023/05/31 04:14:46;;;;;;;2.30;2.00;;;10.60;99.90;;;;;;4990448;28;20033;-38
2023/05/31 04:17:12;;;;;;;6.10;2.20;;;10.60;99.90;;;;;;4993539;28;20383;-38
2023/05/31 04:19:37;;;;;;;2.28;1.77;;;10.60;99.90;;;;;;4996933;28;20085;-38
2023/05/31 04:22:03;;;;;;;3.80;2.25;;;10.60;99.90;;;;;;4996004;28;20110;-38
2023/05/31 04:24:29;;;;;;;3.28;2.28;;;10.60;99.90;;;;;;4997225;28;20037;-38
2023/05/31 04:26:55;;;;;;;2.13;1.80;;;10.60;99.90;;;;;;4995962;28;20418;-38
2023/05/31 04:29:21;;;;;;;4.63;2.20;;;10.70;99.90;;;;;;4993195;28;20088;-38
2023/05/31 04:31:47;;;;;;;3.42;1.95;;;10.70;99.90;;;;;;4994339;28;20053;-38
2023/05/31 04:34:17;;;;;;;2.40;2.20;;;10.80;99.90;;;;;;4999871;28;20517;-38
2023/05/31 04:36:44;;;;;;;3.95;2.08;;;10.90;99.90;;;;;;4995155;28;20525;-38
2023/05/31 04:39:14;;;;;;;3.72;2.35;;;10.90;99.90;;;;;;4988624;28;20149;-38
2023/05/31 04:41:40;;;;;;;4.82;2.17;;;11.00;99.90;;;;;;4989166;28;20035;-38
2023/05/31 04:44:06;;;;;;;3.75;2.15;;;11.10;99.90;;;;;;4993995;28;20500;-38
2023/05/31 04:46:32;;;;;;;5.15;2.35;;;11.20;99.90;;;;;;4997863;28;20052;-38
2023/05/31 04:48:58;;;;;;;3.95;2.10;;;11.30;99.90;;;;;;4994525;28;20034;-38
2023/05/31 04:51:24;;;;;;;4.05;2.10;;;11.40;99.90;;;;;;4993080;28;20081;-38
2023/05/31 04:53:49;;;;;;;5.07;2.67;;;11.50;99.90;;;;;;4996074;28;20518;-38
2023/05/31 04:56:15;;;;;;;5.22;2.10;;;11.60;99.90;;;;;;4991410;28;20025;-38
2023/05/31 04:58:41;;;;;;;4.65;2.30;;;11.70;99.90;;;;;;4993743;28;20614;-38
2023/05/31 05:01:07;;;;;;;3.92;2.50;;;11.80;99.90;;;;;;4996077;28;20108;-38
2023/05/31 05:03:34;;;;;;;3.65;2.30;;;11.90;99.90;;;;;;4972229;28;20054;-38
2023/05/31 05:06:18;;;;;;;4.32;2.13;;;12.10;99.90;;;;;;4978039;28;20111;-38
2023/05/31 05:08:45;;;;;;;4.18;2.45;;;12.20;99.90;;;;;;4993362;28;20030;-38
2023/05/31 05:11:11;;;;;;;3.80;2.35;;;12.30;99.90;;;;;;4992723;28;20054;-38
2023/05/31 05:13:37;;;;;;;4.45;2.42;;;12.40;99.90;;;;;;4988677;28;20037;-38
2023/05/31 05:16:02;;;;;;;3.53;2.17;;;12.50;99.90;;;;;;4992557;28;20377;-37
2023/05/31 05:18:30;;;;;;;5.30;2.35;;;12.60;99.90;;;;;;4982110;28;20041;-37
2023/05/31 05:20:56;;;;;;;5.25;2.67;;;12.70;99.90;;;;;;4991930;28;20694;-37
2023/05/31 05:23:22;;;;;;;3.58;2.45;;;12.80;99.90;;;;;;4975129;28;20077;-38
2023/05/31 05:25:48;;;;;;;2.97;2.28;;;12.90;99.90;;;;;;4997153;28;20045;-38
2023/05/31 05:28:14;;;;;;;4.13;2.40;;;13.10;99.90;;;;;;4995487;28;20026;-38
2023/05/31 05:30:39;;;;;;;8.93;2.50;;;13.10;99.90;;;;;;4992258;28;20040;-38
2023/05/31 05:33:05;;;;;;;3.50;2.47;;;13.20;99.90;;;;;;4991525;28;20049;-38
2023/05/31 05:35:31;;;;;;;4.82;2.17;;;13.40;99.90;;;;;;4995626;28;20387;-38
2023/05/31 05:37:57;;;;;;;2.85;2.08;;;13.50;99.90;;;;;;4993682;28;20032;-38
2023/05/31 05:40:23;;;;;;;12.55;2.40;;;13.60;99.90;;;;;;4995694;28;20038;-38
2023/05/31 05:42:49;;;;;;;5.13;2.30;;;13.70;99.90;;;;;;4993163;28;20092;-38
2023/05/31 05:45:15;;;;;;;3.35;2.00;;;13.80;99.90;;;;;;4994323;28;20515;-38
2023/05/31 05:47:44;;;;;;;3.45;2.00;;;14.00;99.90;;;;;;4995693;28;20018;-38
2023/05/31 05:50:11;;;;;;;8.38;2.33;;;14.10;99.90;;;;;;4970328;28;20953;-38
2023/05/31 05:52:37;;;;;;;4.65;2.05;;;14.20;99.90;;;;;;4991971;28;20096;-38
2023/05/31 05:55:03;;;;;;;5.55;2.20;;;14.30;99.90;;;;;;4995494;28;20132;-38
2023/05/31 05:57:29;;;;;;;6.97;2.45;;;14.40;99.90;;;;;;4990585;28;20088;-39
2023/05/31 05:59:56;;;;;;;3.78;2.55;;;14.50;99.90;;;;;;4993468;28;20109;-38
2023/05/31 06:02:21;;;;;;;5.32;2.30;;;14.70;99.90;;;;;;4988254;28;20036;-39
2023/05/31 06:04:47;;;;;;;4.15;2.22;;;14.80;99.90;;;;;;4977267;28;20209;-38
2023/05/31 06:07:13;;;;;;;7.32;2.92;;;14.90;99.90;;;;;;4991200;28;20034;-38
2023/05/31 06:09:39;;;;;;;3.40;2.10;;;14.90;99.90;;;;;;4974788;28;20028;-39
2023/05/31 06:12:06;;;;;;;5.95;2.10;;;14.90;99.90;;;;;;4975769;28;20034;-39
2023/05/31 06:14:32;;;;;;;5.33;1.97;;;15.10;99.90;;;;;;4990510;28;20030;-37
2023/05/31 06:16:57;;;;;;;3.28;2.05;;;15.30;99.90;;;;;;4997763;28;20558;-39
2023/05/31 06:19:23;;;;;;;4.45;2.33;;;15.30;99.90;;;;;;4972805;28;20121;-38
2023/05/31 06:21:53;;;;;;;4.35;2.22;;;15.40;99.90;;;;;;4983667;28;20037;-38
2023/05/31 06:24:19;;;;;;;5.70;2.45;;;15.40;99.90;;;;;;4990487;28;20488;-38
2023/05/31 06:26:45;;;;;;;6.10;2.83;;;15.40;99.90;;;;;;4981328;28;20041;-38
2023/05/31 06:29:11;;;;;;;3.25;2.00;;;15.40;99.90;;;;;;4979815;28;20042;-38
2023/05/31 06:31:38;;;;;;;3.78;2.20;;;15.50;99.90;;;;;;4984137;28;20039;-37
2023/05/31 06:34:09;;;;;;;4.15;2.40;;;15.60;99.90;;;;;;4998735;28;20045;-38
2023/05/31 06:36:35;;;;;;;5.97;2.25;;;15.70;99.90;;;;;;4979146;28;20080;-38
2023/05/31 06:39:01;;;;;;;6.47;2.55;;;15.80;99.90;;;;;;5001330;28;20469;-38
2023/05/31 06:41:29;;;;;;;3.67;2.47;;;15.90;99.90;;;;;;4985680;28;20022;-38
2023/05/31 06:43:55;;;;;;;10.05;2.63;;;15.90;99.90;;;;;;4981415;28;20387;-38
2023/05/31 06:46:21;;;;;;;4.80;2.53;;;16.00;99.90;;;;;;4999689;28;20030;-38
2023/05/31 06:48:46;;;;;;;3.33;2.17;;;15.90;99.90;;;;;;4982918;28;20061;-38
2023/05/31 06:51:12;;;;;;;3.85;2.50;;;16.10;99.90;;;;;;4999166;28;20193;-38
2023/05/31 06:53:38;;;;;;;6.40;1.85;;;16.10;99.90;;;;;;5008619;28;20018;-41
2023/05/31 06:56:05;;;;;;;5.53;2.08;;;16.00;99.90;;;;;;4998532;28;20026;-38
2023/05/31 06:58:34;;;;;;;3.45;2.20;;;16.10;99.90;;;;;;4998245;28;20022;-41
2023/05/31 07:00:59;;;;;;;5.10;2.22;;;16.20;99.90;;;;;;4996032;28;20034;-39
2023/05/31 07:03:26;;;;;;;4.50;2.30;;;16.30;99.90;;;;;;4997704;28;20112;-41
2023/05/31 07:05:51;;;;;;;4.05;2.30;;;16.30;99.90;;;;;;4998917;28;20044;-38
2023/05/31 07:08:17;;;;;;;4.63;2.15;;;16.40;99.90;;;;;;4996717;28;20105;-39
2023/05/31 07:10:45;;;;;;;5.55;2.60;;;16.40;99.90;;;;;;4996181;28;20105;-40
2023/05/31 07:13:11;;;;;;;7.65;2.30;;;16.60;99.90;;;;;;4981141;28;20108;-47
2023/05/31 07:15:37;;;;;;;5.18;3.95;;;16.60;99.90;;;;;;4980099;28;20089;-38
2023/05/31 07:18:02;;;;;;;2.35;2.08;;;16.80;99.90;;;;;;4999105;28;20434;-39
2023/05/31 07:20:28;;;;;;;3.30;2.03;;;16.90;99.90;;;;;;4999794;28;20057;-38
2023/05/31 07:22:54;;;;;;;4.20;2.08;;;17.10;99.90;;;;;;4991106;28;20029;-41
2023/05/31 07:25:20;;;;;;;3.67;2.13;;;17.10;99.90;;;;;;4998476;28;20037;-38
2023/05/31 07:27:46;;;;;;;5.38;2.30;;;17.20;99.90;;;;;;4996748;28;20550;-38
2023/05/31 07:30:11;;;;;;;5.18;2.50;;;17.20;99.90;;;;;;4995702;28;20121;-38
2023/05/31 07:32:37;;;;;;;6.93;2.22;;;17.40;99.90;;;;;;4982238;28;20101;-38
2023/05/31 07:35:03;;;;;;;2.67;2.05;;;17.50;99.90;;;;;;5000364;28;20085;-38
2023/05/31 07:37:29;;;;;;;5.18;2.17;;;17.50;99.90;;;;;;4978805;28;20034;-38
2023/05/31 07:39:55;;;;;;;4.93;2.30;;;17.60;99.90;;;;;;4985741;28;20479;-38
2023/05/31 07:42:21;;;;;;;5.13;2.45;;;17.70;99.90;;;;;;4995764;28;20440;-42
2023/05/31 07:44:48;;;;;;;5.28;2.53;;;17.80;99.90;;;;;;4997637;28;20498;-38
2023/05/31 07:47:15;;;;;;;5.15;2.55;;;17.90;99.90;;;;;;4997068;28;20038;-39
2023/05/31 07:49:40;;;;;;;4.25;2.38;;;18.00;99.90;;;;;;4996972;28;20551;-38
2023/05/31 07:52:09;;;;;;;6.28;2.10;;;17.90;99.90;;;;;;4981698;28;20034;-38
2023/05/31 07:54:39;;;;;;;3.75;1.90;;;18.20;99.90;;;;;;4982600;28;20030;-38
2023/05/31 07:57:05;;;;;;;4.85;2.40;;;18.40;99.90;;;;;;4996180;28;20036;-38
2023/05/31 07:59:31;;;;;;;7.45;2.72;;;18.40;99.90;;;;;;4984849;28;20058;-38
2023/05/31 08:01:57;;;;;;;5.20;2.63;;;18.20;99.90;;;;;;4982170;28;20030;-39
2023/05/31 08:04:23;;;;;;;5.88;2.90;;;18.50;99.90;;;;;;4997845;28;20038;-38
2023/05/31 08:06:48;;;;;;;2.95;1.88;;;18.60;99.90;;;;;;5001091;28;20030;-38
2023/05/31 08:09:14;;;;;;;5.60;2.20;;;18.80;99.90;;;;;;4998492;28;20077;-38
2023/05/31 08:11:40;;;;;;;3.53;2.10;;;19.10;99.90;;;;;;4994910;28;20088;-38
2023/05/31 08:14:05;;;;;;;5.38;2.47;;;19.20;99.90;;;;;;4999084;28;20022;-38
2023/05/31 08:16:32;;;;;;;4.32;2.20;;;19.40;99.90;;;;;;4993874;28;20033;-38
2023/05/31 08:18:58;;;;;;;5.88;2.50;;;19.30;99.90;;;;;;4995346;28;20450;-38
2023/05/31 08:21:23;;;;;;;5.82;2.40;;;19.20;99.90;;;;;;4993684;28;20030;-38
2023/05/31 08:23:49;;;;;;;6.75;2.17;;;19.20;99.90;;;;;;4995804;28;20513;-38
2023/05/31 08:26:15;;;;;;;11.38;2.50;;;19.40;99.90;;;;;;4997795;28;20191;-39
2023/05/31 08:28:41;;;;;;;6.60;2.80;;;19.40;99.90;;;;;;4996940;28;20035;-39
2023/05/31 08:31:07;;;;;;;10.60;2.63;;;19.50;99.90;;;;;;5000071;28;20046;-38
2023/05/31 08:33:32;;;;;;;7.28;2.60;;;19.40;99.90;;;;;;4994814;28;20046;-38
2023/05/31 08:35:59;;;;;;;4.07;2.05;;;19.50;99.90;;;;;;4994986;28;20077;-38
2023/05/31 08:38:28;;;;;;;5.28;3.03;;;19.50;99.90;;;;;;4993937;28;20403;-38
2023/05/31 08:40:57;;;;;;;5.03;2.50;;;19.40;99.90;;;;;;4992995;28;20383;-38
2023/05/31 08:43:26;;;;;;;6.40;2.60;;;19.50;99.90;;;;;;4996310;28;20080;-38
2023/05/31 08:45:51;;;;;;;;;;;19.70;99.90;;;;;;4996460;28;20045;-38
2023/05/31 08:48:46;;;;;;;3.80;2.25;;;19.80;99.90;;;;;;4991401;28;19956;-38
2023/05/31 08:51:13;;;;;;;3.83;2.17;;;19.80;99.90;;;;;;4973476;28;20046;-38
2023/05/31 08:53:41;;;;;;;4.50;2.42;;;19.80;99.90;;;;;;4994157;28;20502;-38
2023/05/31 08:56:08;;;;;;;10.32;2.92;;;19.90;99.90;;;;;;4996159;28;20395;-38
2023/05/31 08:58:35;;;;;;;2.97;2.17;;;19.90;99.90;;;;;;5001377;28;20034;-38
2023/05/31 09:01:02;;;;;;;7.07;2.38;;;19.90;99.90;;;;;;4995091;28;20057;-39
2023/05/31 09:03:28;;;;;;;6.82;2.28;;;19.90;99.90;;;;;;4999444;28;20572;-38
2023/05/31 09:05:55;;;;;;;5.00;2.72;;;19.90;99.90;;;;;;4997597;28;20171;-38
2023/05/31 09:08:21;;;;;;;6.47;2.38;;;20.10;99.90;;;;;;4993907;28;20109;-38
2023/05/31 09:10:46;;;;;;;4.35;2.65;;;20.10;99.90;;;;;;4997083;28;20618;-38
2023/05/31 09:13:13;;;;;;;4.25;2.15;;;20.20;99.90;;;;;;4994228;28;20026;-38
2023/05/31 09:15:41;;;;;;;5.20;2.40;;;20.40;99.90;;;;;;4999433;28;20034;-38
2023/05/31 09:18:20;;;;;;;4.07;1.95;;;20.60;99.90;;;;;;4999314;28;20025;-38
2023/05/31 09:20:47;;;;;;;4.20;2.35;;;20.80;99.90;;;;;;4994466;28;20093;-38
2023/05/31 09:23:13;;;;;;;3.90;2.43;;;21.00;99.90;;;;;;4993786;28;20498;-38
2023/05/31 09:25:47;;;;;;;5.07;2.35;;;21.20;99.90;;;;;;4994006;28;20015;-38
2023/05/31 09:28:13;;;;;;;4.28;2.08;;;20.90;99.90;;;;;;4999206;28;20045;-38
2023/05/31 09:30:39;;;;;;;5.20;2.65;;;20.90;99.90;;;;;;4993839;28;20030;-38
2023/05/31 09:33:06;;;;;;;4.60;2.58;;;20.80;99.90;;;;;;4995474;28;20055;-38
2023/05/31 09:35:31;;;;;;;3.90;2.17;;;20.90;99.90;;;;;;4993664;28;20419;-38
2023/05/31 09:37:57;;;;;;;4.20;2.25;;;20.90;99.90;;;;;;4993580;28;20022;-38
2023/05/31 09:40:28;;;;;;;4.47;2.40;;;20.70;99.90;;;;;;4993260;28;20500;-38
2023/05/31 09:42:54;;;;;;;3.25;2.20;;;20.90;99.90;;;;;;4993517;28;20037;-38
2023/05/31 09:45:21;;;;;;;4.90;2.35;;;20.80;99.90;;;;;;4997282;28;20080;-39
2023/05/31 09:47:47;;;;;;;2.88;2.00;;;21.00;99.90;;;;;;4996024;28;20126;-38
2023/05/31 09:50:20;;;;;;;3.17;1.90;;;21.10;99.90;;;;;;4997974;28;20033;-38
2023/05/31 09:52:48;;;;;;;3.38;2.17;;;21.00;99.90;;;;;;4998209;28;20044;-38
2023/05/31 09:55:15;;;;;;;4.38;2.17;;;21.10;99.90;;;;;;4997982;28;20593;-38
2023/05/31 09:57:43;;;;;;;2.28;1.92;;;21.10;99.90;;;;;;4991412;28;20031;-38
2023/05/31 10:00:19;;;;;;;2.70;2.08;;;21.10;99.90;;;;;;4994269;28;20018;-38
2023/05/31 10:02:46;;;;;;;3.17;2.05;;;21.30;99.90;;;;;;4993573;28;20038;-38
2023/05/31 10:05:12;;;;;;;7.87;3.30;;;21.50;99.90;;;;;;4999562;28;20061;-38
2023/05/31 10:07:44;;;;;;;4.68;2.05;;;21.40;99.90;;;;;;4998453;28;20455;-38
2023/05/31 10:10:10;;;;;;;6.50;2.17;;;21.20;99.90;;;;;;5000342;28;20061;-38
2023/05/31 10:12:45;;;;;;;3.90;1.95;;;21.40;99.90;;;;;;5003713;28;20022;-38
2023/05/31 10:15:15;;;;;;;5.15;2.00;;;21.60;99.90;;;;;;5002169;28;20030;-38
2023/05/31 10:17:46;;;;;;;6.00;2.15;;;21.70;99.90;;;;;;4999129;28;20034;-38
2023/05/31 10:20:15;;;;;;;3.20;2.10;;;21.70;99.90;;;;;;5002500;28;20026;-38
2023/05/31 10:22:43;;;;;;;3.58;1.90;;;21.50;99.90;;;;;;5002006;28;20030;-38
2023/05/31 10:25:30;;;;;;;5.95;2.30;;;21.80;99.90;;;;;;4996358;28;20037;-38
2023/05/31 10:28:06;;;;;;;4.90;2.42;;;21.70;99.90;;;;;;5000509;28;20034;-37
2023/05/31 10:30:34;;;;;;;4.90;2.13;;;21.50;99.90;;;;;;5000296;28;20030;-37
2023/05/31 10:33:07;;;;;;;5.22;2.45;;;21.40;99.90;;;;;;5000632;28;20104;-38
2023/05/31 10:35:32;;;;;;;3.70;1.92;;;21.50;99.90;;;;;;5000466;28;20022;-38
2023/05/31 10:38:00;;;;;;;5.50;2.35;;;21.50;99.90;;;;;;5002623;28;20026;-38
2023/05/31 10:40:38;;;;;;;4.72;2.25;;;21.40;99.90;;;;;;4998701;28;20347;-38
2023/05/31 10:43:16;;;;;;;8.05;2.17;;;21.40;99.90;;;;;;5003072;28;20160;-38
2023/05/31 10:45:46;;;;;;;5.07;2.47;;;21.50;99.90;;;;;;5002159;28;20041;-38
2023/05/31 10:48:21;;;;;;;4.03;1.98;;;21.60;99.90;;;;;;5005839;28;20530;-38
2023/05/31 10:50:57;;;;;;;2.67;1.83;;;22.00;99.90;;;;;;5005351;28;20089;-38
2023/05/31 10:53:34;;;;;;;3.88;1.70;;;22.00;99.90;;;;;;5002491;28;20117;-38
2023/05/31 10:56:06;;;;;;;4.60;1.83;;;21.90;99.90;;;;;;4998505;28;20029;-38
2023/05/31 10:58:37;;;;;;;6.55;2.10;;;22.20;99.90;;;;;;5006271;28;20021;-38
2023/05/31 11:01:09;;;;;;;4.30;2.00;;;22.40;99.90;;;;;;5001589;28;20501;-38
2023/05/31 11:03:36;;;;;;;3.33;1.92;;;22.50;99.90;;;;;;5001137;28;20018;-38
2023/05/31 11:06:08;;;;;;;2.80;1.70;;;22.50;99.90;;;;;;5001155;28;20026;-38
2023/05/31 11:08:35;;;;;;;6.38;1.88;;;22.50;99.90;;;;;;5000770;28;20713;-38
2023/05/31 11:11:27;;;;;;;3.45;2.00;;;22.40;99.90;;;;;;4986180;28;20107;-37
2023/05/31 11:14:06;;;;;;;7.03;2.22;;;22.50;99.90;;;;;;5003724;28;20053;-37
2023/05/31 11:16:45;;;;;;;4.70;2.55;;;22.40;99.90;;;;;;5004743;28;20052;-37
2023/05/31 11:19:16;;;;;;;10.23;2.15;;;22.60;99.90;;;;;;4999291;28;20041;-37
2023/05/31 11:21:51;;;;;;;3.13;1.88;;;22.60;99.90;;;;;;5003017;28;20027;-37
2023/05/31 11:24:30;;;;;;;2.92;1.77;;;22.70;99.90;;;;;;4998893;28;20518;-38
2023/05/31 11:27:00;;;;;;;3.50;1.98;;;22.70;99.90;;;;;;4984691;28;20033;-38
2023/05/31 11:29:48;;;;;;;4.25;2.00;;;22.30;99.90;;;;;;4999828;28;20037;-38
2023/05/31 11:32:15;;;;;;;6.57;2.28;;;22.40;99.90;;;;;;5000841;28;20038;-38
2023/05/31 11:34:58;;;;;;;5.00;2.38;;;22.40;99.90;;;;;;4998621;28;20043;-38
2023/05/31 11:37:28;;;;;;;4.47;2.00;;;22.30;99.90;;;;;;4995223;28;20039;-38
2023/05/31 11:39:57;;;;;;;3.67;2.10;;;22.20;99.90;;;;;;4999986;28;20117;-38
2023/05/31 11:42:22;;;;;;;4.03;1.90;;;22.30;99.90;;;;;;4999097;28;20042;-38
2023/05/31 11:44:50;;;;;;;5.85;2.35;;;22.50;99.90;;;;;;4996402;28;20042;-38
2023/05/31 11:47:26;;;;;;;6.55;2.40;;;22.40;99.90;;;;;;4995904;28;20503;-38
2023/05/31 11:49:52;;;;;;;6.82;2.08;;;22.30;99.90;;;;;;4997320;28;20044;-38
2023/05/31 11:52:20;;;;;;;4.65;2.00;;;22.50;99.90;;;;;;4995936;28;20039;-38
2023/05/31 11:54:48;;;;;;;8.65;1.80;;;22.80;99.90;;;;;;4997452;28;20022;-38
2023/05/31 11:57:16;;;;;;;6.40;2.33;;;22.90;99.90;;;;;;4998491;28;20048;-38
2023/05/31 11:59:42;;;;;;;4.03;1.95;;;23.00;99.90;;;;;;4996158;28;20022;-38
2023/05/31 12:02:10;;;;;;;4.05;1.77;;;23.20;99.90;;;;;;4998584;28;20112;-38
2023/05/31 12:04:36;;;;;;;6.30;1.90;;;23.10;99.90;;;;;;4997875;28;20483;-38
2023/05/31 12:07:16;;;;;;;3.38;1.90;;;22.90;99.90;;;;;;4997885;28;20026;-38
2023/05/31 12:09:42;;;;;;;4.50;1.80;;;22.80;99.90;;;;;;4996218;28;20038;-38
2023/05/31 12:12:11;;;;;;;2.60;1.63;;;23.00;99.90;;;;;;4992416;28;20120;-38
2023/05/31 12:14:37;;;;;;;2.72;1.65;;;22.80;99.90;;;;;;4999968;28;20035;-37
2023/05/31 12:17:04;;;;;;;5.43;2.00;;;22.80;99.90;;;;;;4995993;28;20030;-38
2023/05/31 12:19:30;;;;;;;5.40;2.05;;;22.90;99.90;;;;;;4994007;28;20029;-38
2023/05/31 12:21:56;;;;;;;4.35;1.77;;;23.20;99.90;;;;;;4998907;28;20097;-38
2023/05/31 12:24:22;;;;;;;3.08;2.00;;;23.40;99.90;;;;;;4995958;28;20034;-38
2023/05/31 12:26:51;;;;;;;4.55;2.10;;;23.80;99.90;;;;;;4997676;28;20109;-38
2023/05/31 12:29:18;;;;;;;2.75;2.15;;;23.40;99.90;;;;;;4992438;28;20570;-38
2023/05/31 12:31:45;;;;;;;3.83;2.07;;;23.40;99.90;;;;;;4996459;28;20132;-38
2023/05/31 12:34:12;;;;;;;6.63;2.20;;;23.30;99.90;;;;;;4997126;28;20563;-38
2023/05/31 12:36:41;;;;;;;4.65;2.20;;;23.10;99.90;;;;;;4995183;28;20068;-40
2023/05/31 12:39:12;;;;;;;5.40;1.83;;;22.70;99.90;;;;;;4999326;28;20046;-38
2023/05/31 12:41:41;;;;;;;5.10;2.13;;;22.60;99.90;;;;;;4993348;28;20037;-38
2023/05/31 12:44:07;;;;;;;4.60;2.05;;;22.70;99.90;;;;;;4995063;28;20034;-38
2023/05/31 12:46:40;;;;;;;7.25;2.10;;;22.70;99.90;;;;;;4995173;28;20058;-38
2023/05/31 12:49:30;;;;;;;4.15;1.80;;;22.80;99.90;;;;;;4997538;28;20038;-38
2023/05/31 12:52:05;;;;;;;4.40;2.05;;;22.80;99.90;;;;;;4998442;28;20034;-38
2023/05/31 12:54:33;;;;;;;3.78;1.80;;;22.80;99.90;;;;;;4992319;28;20018;-38
2023/05/31 12:57:03;;;;;;;5.38;1.90;;;22.80;99.90;;;;;;4996196;28;20025;-38
2023/05/31 12:59:30;;;;;;;2.90;1.67;;;22.70;99.90;;;;;;5002600;28;20025;-38